sensor_id;sensor_type;location;lat;lon;timestamp;P1;durP1;ratioP1;P2;durP2;ratioP2
305;SDS011;137;48.578;9.180;2022-11-15T00:00:47;2.77;;;2.57;;
305;SDS011;137;48.578;9.180;2022-11-15T00:03:14;3.20;;;2.73;;
305;SDS011;137;48.578;9.180;2022-11-15T00:05:41;2.53;;;2.33;;
305;SDS011;137;48.578;9.180;2022-11-15T00:08:08;3.10;;;2.80;;
305;SDS011;137;48.578;9.180;2022-11-15T00:10:34;3.80;;;2.83;;
305;SDS011;137;48.578;9.180;2022-11-15T00:13:04;4.00;;;2.57;;
305;SDS011;137;48.578;9.180;2022-11-15T00:15:33;2.50;;;2.27;;
305;SDS011;137;48.578;9.180;2022-11-15T00:18:02;2.37;;;2.13;;
305;SDS011;137;48.578;9.180;2022-11-15T00:20:29;3.13;;;2.30;;
305;SDS011;137;48.578;9.180;2022-11-15T00:22:56;2.53;;;2.10;;
305;SDS011;137;48.578;9.180;2022-11-15T00:25:23;3.10;;;2.40;;
305;SDS011;137;48.578;9.180;2022-11-15T00:27:50;3.20;;;2.37;;
305;SDS011;137;48.578;9.180;2022-11-15T00:30:20;4.47;;;2.70;;
305;SDS011;137;48.578;9.180;2022-11-15T00:32:47;2.73;;;2.53;;
305;SDS011;137;48.578;9.180;2022-11-15T00:35:15;3.63;;;2.30;;
305;SDS011;137;48.578;9.180;2022-11-15T00:37:42;2.73;;;1.80;;
305;SDS011;137;48.578;9.180;2022-11-15T00:40:09;3.37;;;2.33;;
305;SDS011;137;48.578;9.180;2022-11-15T00:42:37;2.77;;;2.00;;
305;SDS011;137;48.578;9.180;2022-11-15T00:45:04;2.57;;;2.30;;
305;SDS011;137;48.578;9.180;2022-11-15T00:47:32;2.70;;;1.87;;
305;SDS011;137;48.578;9.180;2022-11-15T00:49:58;2.70;;;2.07;;
305;SDS011;137;48.578;9.180;2022-11-15T00:52:27;2.60;;;2.40;;
305;SDS011;137;48.578;9.180;2022-11-15T00:54:53;2.50;;;2.10;;
305;SDS011;137;48.578;9.180;2022-11-15T00:57:20;2.00;;;1.63;;
305;SDS011;137;48.578;9.180;2022-11-15T00:59:47;3.23;;;2.13;;
305;SDS011;137;48.578;9.180;2022-11-15T01:02:13;2.77;;;2.03;;
305;SDS011;137;48.578;9.180;2022-11-15T01:04:40;3.07;;;2.57;;
305;SDS011;137;48.578;9.180;2022-11-15T01:07:07;2.23;;;1.90;;
305;SDS011;137;48.578;9.180;2022-11-15T01:09:35;3.03;;;2.33;;
305;SDS011;137;48.578;9.180;2022-11-15T01:12:02;4.27;;;2.23;;
305;SDS011;137;48.578;9.180;2022-11-15T01:14:29;2.10;;;1.70;;
305;SDS011;137;48.578;9.180;2022-11-15T01:16:56;6.13;;;2.07;;
305;SDS011;137;48.578;9.180;2022-11-15T01:19:22;5.97;;;2.77;;
305;SDS011;137;48.578;9.180;2022-11-15T01:21:49;3.20;;;2.30;;
305;SDS011;137;48.578;9.180;2022-11-15T01:24:16;2.73;;;2.23;;
305;SDS011;137;48.578;9.180;2022-11-15T01:26:45;3.00;;;2.10;;
305;SDS011;137;48.578;9.180;2022-11-15T01:29:11;3.60;;;1.83;;
305;SDS011;137;48.578;9.180;2022-11-15T01:31:38;3.33;;;1.53;;
305;SDS011;137;48.578;9.180;2022-11-15T01:34:05;3.00;;;1.87;;
305;SDS011;137;48.578;9.180;2022-11-15T01:36:32;1.97;;;1.77;;
305;SDS011;137;48.578;9.180;2022-11-15T01:38:58;2.40;;;1.80;;
305;SDS011;137;48.578;9.180;2022-11-15T01:41:26;2.10;;;1.90;;
305;SDS011;137;48.578;9.180;2022-11-15T01:43:57;3.90;;;2.13;;
305;SDS011;137;48.578;9.180;2022-11-15T01:46:44;2.37;;;1.87;;
305;SDS011;137;48.578;9.180;2022-11-15T01:49:14;2.50;;;1.90;;
305;SDS011;137;48.578;9.180;2022-11-15T01:51:44;2.90;;;1.80;;
305;SDS011;137;48.578;9.180;2022-11-15T01:54:11;2.33;;;2.13;;
305;SDS011;137;48.578;9.180;2022-11-15T01:56:42;2.10;;;1.73;;
305;SDS011;137;48.578;9.180;2022-11-15T01:59:13;2.43;;;1.70;;
305;SDS011;137;48.578;9.180;2022-11-15T02:01:41;2.97;;;2.00;;
305;SDS011;137;48.578;9.180;2022-11-15T02:04:10;2.10;;;1.90;;
305;SDS011;137;48.578;9.180;2022-11-15T02:06:41;3.83;;;2.17;;
305;SDS011;137;48.578;9.180;2022-11-15T02:09:09;2.90;;;1.80;;
305;SDS011;137;48.578;9.180;2022-11-15T02:11:36;3.90;;;2.20;;
305;SDS011;137;48.578;9.180;2022-11-15T02:14:03;2.27;;;2.07;;
305;SDS011;137;48.578;9.180;2022-11-15T02:16:34;3.87;;;2.20;;
305;SDS011;137;48.578;9.180;2022-11-15T02:19:12;2.57;;;2.30;;
305;SDS011;137;48.578;9.180;2022-11-15T02:21:55;2.07;;;1.87;;
305;SDS011;137;48.578;9.180;2022-11-15T02:24:36;3.23;;;1.90;;
305;SDS011;137;48.578;9.180;2022-11-15T02:27:27;2.03;;;1.77;;
305;SDS011;137;48.578;9.180;2022-11-15T02:30:25;2.30;;;1.93;;
305;SDS011;137;48.578;9.180;2022-11-15T02:32:58;2.50;;;1.90;;
305;SDS011;137;48.578;9.180;2022-11-15T02:35:30;2.03;;;1.63;;
305;SDS011;137;48.578;9.180;2022-11-15T02:38:04;2.47;;;2.13;;
305;SDS011;137;48.578;9.180;2022-11-15T02:40:39;2.00;;;1.50;;
305;SDS011;137;48.578;9.180;2022-11-15T02:43:12;2.33;;;2.10;;
305;SDS011;137;48.578;9.180;2022-11-15T02:46:06;2.97;;;2.00;;
305;SDS011;137;48.578;9.180;2022-11-15T02:48:39;2.40;;;2.20;;
305;SDS011;137;48.578;9.180;2022-11-15T02:51:08;2.90;;;2.60;;
305;SDS011;137;48.578;9.180;2022-11-15T02:53:36;2.70;;;2.00;;
305;SDS011;137;48.578;9.180;2022-11-15T02:56:02;2.00;;;1.80;;
305;SDS011;137;48.578;9.180;2022-11-15T02:58:38;4.70;;;2.50;;
305;SDS011;137;48.578;9.180;2022-11-15T03:01:26;3.03;;;2.00;;
305;SDS011;137;48.578;9.180;2022-11-15T03:04:06;2.37;;;1.93;;
305;SDS011;137;48.578;9.180;2022-11-15T03:06:42;3.07;;;2.37;;
305;SDS011;137;48.578;9.180;2022-11-15T03:09:14;2.80;;;2.20;;
305;SDS011;137;48.578;9.180;2022-11-15T03:11:50;2.50;;;2.30;;
305;SDS011;137;48.578;9.180;2022-11-15T03:14:23;3.30;;;3.00;;
305;SDS011;137;48.578;9.180;2022-11-15T03:16:56;2.80;;;2.13;;
305;SDS011;137;48.578;9.180;2022-11-15T03:19:30;7.57;;;3.10;;
305;SDS011;137;48.578;9.180;2022-11-15T03:22:01;2.80;;;2.17;;
305;SDS011;137;48.578;9.180;2022-11-15T03:24:31;3.17;;;2.57;;
305;SDS011;137;48.578;9.180;2022-11-15T03:27:00;2.83;;;2.50;;
305;SDS011;137;48.578;9.180;2022-11-15T03:29:29;3.60;;;2.63;;
305;SDS011;137;48.578;9.180;2022-11-15T03:32:01;3.07;;;2.40;;
305;SDS011;137;48.578;9.180;2022-11-15T03:34:33;3.30;;;2.43;;
305;SDS011;137;48.578;9.180;2022-11-15T03:37:04;2.93;;;2.53;;
305;SDS011;137;48.578;9.180;2022-11-15T03:39:31;4.63;;;2.83;;
305;SDS011;137;48.578;9.180;2022-11-15T03:42:02;2.80;;;2.50;;
305;SDS011;137;48.578;9.180;2022-11-15T03:44:40;4.63;;;2.50;;
305;SDS011;137;48.578;9.180;2022-11-15T03:47:13;2.67;;;2.27;;
305;SDS011;137;48.578;9.180;2022-11-15T03:49:46;2.20;;;2.00;;
305;SDS011;137;48.578;9.180;2022-11-15T03:52:17;3.97;;;2.63;;
305;SDS011;137;48.578;9.180;2022-11-15T03:54:48;3.17;;;2.63;;
305;SDS011;137;48.578;9.180;2022-11-15T03:57:16;3.27;;;2.97;;
305;SDS011;137;48.578;9.180;2022-11-15T03:59:43;3.00;;;2.43;;
305;SDS011;137;48.578;9.180;2022-11-15T04:02:10;2.20;;;2.00;;
305;SDS011;137;48.578;9.180;2022-11-15T04:04:39;4.17;;;2.10;;
305;SDS011;137;48.578;9.180;2022-11-15T04:07:05;3.10;;;2.67;;
305;SDS011;137;48.578;9.180;2022-11-15T04:09:32;3.60;;;2.77;;
305;SDS011;137;48.578;9.180;2022-11-15T04:12:19;2.23;;;2.03;;
305;SDS011;137;48.578;9.180;2022-11-15T04:14:55;3.47;;;2.50;;
305;SDS011;137;48.578;9.180;2022-11-15T04:17:33;5.27;;;3.13;;
305;SDS011;137;48.578;9.180;2022-11-15T04:20:02;3.20;;;2.60;;
305;SDS011;137;48.578;9.180;2022-11-15T04:22:47;3.63;;;2.70;;
305;SDS011;137;48.578;9.180;2022-11-15T04:25:31;3.07;;;2.77;;
305;SDS011;137;48.578;9.180;2022-11-15T04:27:57;2.93;;;2.70;;
305;SDS011;137;48.578;9.180;2022-11-15T04:30:24;2.93;;;2.60;;
305;SDS011;137;48.578;9.180;2022-11-15T04:32:51;4.10;;;2.87;;
305;SDS011;137;48.578;9.180;2022-11-15T04:35:19;3.40;;;3.07;;
305;SDS011;137;48.578;9.180;2022-11-15T04:37:46;6.40;;;3.10;;
305;SDS011;137;48.578;9.180;2022-11-15T04:40:13;3.53;;;2.80;;
305;SDS011;137;48.578;9.180;2022-11-15T04:42:40;3.83;;;2.70;;
305;SDS011;137;48.578;9.180;2022-11-15T04:45:07;3.67;;;2.70;;
305;SDS011;137;48.578;9.180;2022-11-15T04:47:35;4.83;;;3.40;;
305;SDS011;137;48.578;9.180;2022-11-15T04:50:02;3.07;;;2.40;;
305;SDS011;137;48.578;9.180;2022-11-15T04:52:31;6.47;;;3.70;;
305;SDS011;137;48.578;9.180;2022-11-15T04:54:57;2.60;;;2.40;;
305;SDS011;137;48.578;9.180;2022-11-15T04:57:24;3.00;;;2.43;;
305;SDS011;137;48.578;9.180;2022-11-15T04:59:51;3.20;;;2.90;;
305;SDS011;137;48.578;9.180;2022-11-15T05:02:18;4.17;;;3.67;;
305;SDS011;137;48.578;9.180;2022-11-15T05:04:44;3.13;;;2.83;;
305;SDS011;137;48.578;9.180;2022-11-15T05:07:10;3.73;;;2.90;;
305;SDS011;137;48.578;9.180;2022-11-15T05:09:38;2.67;;;2.47;;
305;SDS011;137;48.578;9.180;2022-11-15T05:12:05;3.13;;;2.53;;
305;SDS011;137;48.578;9.180;2022-11-15T05:14:32;4.17;;;3.23;;
305;SDS011;137;48.578;9.180;2022-11-15T05:16:59;3.67;;;3.10;;
305;SDS011;137;48.578;9.180;2022-11-15T05:19:26;3.10;;;2.67;;
305;SDS011;137;48.578;9.180;2022-11-15T05:21:53;5.87;;;3.07;;
305;SDS011;137;48.578;9.180;2022-11-15T05:24:20;7.80;;;3.57;;
305;SDS011;137;48.578;9.180;2022-11-15T05:26:48;4.63;;;3.07;;
305;SDS011;137;48.578;9.180;2022-11-15T05:29:14;4.00;;;2.90;;
305;SDS011;137;48.578;9.180;2022-11-15T05:31:41;5.60;;;3.50;;
305;SDS011;137;48.578;9.180;2022-11-15T05:34:08;4.13;;;3.77;;
305;SDS011;137;48.578;9.180;2022-11-15T05:36:36;3.60;;;3.20;;
305;SDS011;137;48.578;9.180;2022-11-15T05:39:05;4.40;;;4.00;;
305;SDS011;137;48.578;9.180;2022-11-15T05:41:33;3.43;;;3.07;;
305;SDS011;137;48.578;9.180;2022-11-15T05:44:04;4.57;;;3.20;;
305;SDS011;137;48.578;9.180;2022-11-15T05:46:34;5.17;;;3.30;;
305;SDS011;137;48.578;9.180;2022-11-15T05:49:01;3.90;;;3.50;;
305;SDS011;137;48.578;9.180;2022-11-15T05:51:28;4.20;;;3.80;;
305;SDS011;137;48.578;9.180;2022-11-15T05:53:56;4.70;;;4.30;;
305;SDS011;137;48.578;9.180;2022-11-15T05:56:24;5.00;;;4.57;;
305;SDS011;137;48.578;9.180;2022-11-15T05:58:52;5.40;;;4.37;;
305;SDS011;137;48.578;9.180;2022-11-15T06:01:21;5.60;;;5.10;;
305;SDS011;137;48.578;9.180;2022-11-15T06:03:47;5.43;;;4.87;;
305;SDS011;137;48.578;9.180;2022-11-15T06:06:14;6.47;;;4.03;;
305;SDS011;137;48.578;9.180;2022-11-15T06:08:41;5.50;;;4.50;;
305;SDS011;137;48.578;9.180;2022-11-15T06:11:08;4.50;;;4.10;;
305;SDS011;137;48.578;9.180;2022-11-15T06:13:35;4.90;;;4.00;;
305;SDS011;137;48.578;9.180;2022-11-15T06:16:01;4.73;;;3.93;;
305;SDS011;137;48.578;9.180;2022-11-15T06:18:31;4.47;;;3.97;;
305;SDS011;137;48.578;9.180;2022-11-15T06:20:58;5.13;;;4.30;;
305;SDS011;137;48.578;9.180;2022-11-15T06:23:26;5.87;;;3.67;;
305;SDS011;137;48.578;9.180;2022-11-15T06:25:52;5.03;;;3.77;;
305;SDS011;137;48.578;9.180;2022-11-15T06:28:19;4.00;;;3.60;;
305;SDS011;137;48.578;9.180;2022-11-15T06:30:46;4.00;;;3.03;;
305;SDS011;137;48.578;9.180;2022-11-15T06:33:13;4.53;;;3.40;;
305;SDS011;137;48.578;9.180;2022-11-15T06:35:41;4.50;;;4.10;;
305;SDS011;137;48.578;9.180;2022-11-15T06:38:09;4.03;;;3.63;;
305;SDS011;137;48.578;9.180;2022-11-15T06:40:36;5.53;;;4.07;;
305;SDS011;137;48.578;9.180;2022-11-15T06:43:04;5.70;;;4.47;;
305;SDS011;137;48.578;9.180;2022-11-15T06:45:32;4.07;;;3.30;;
305;SDS011;137;48.578;9.180;2022-11-15T06:47:59;4.57;;;3.50;;
305;SDS011;137;48.578;9.180;2022-11-15T06:50:26;6.17;;;3.50;;
305;SDS011;137;48.578;9.180;2022-11-15T06:52:55;4.33;;;3.93;;
305;SDS011;137;48.578;9.180;2022-11-15T06:55:26;4.27;;;3.40;;
305;SDS011;137;48.578;9.180;2022-11-15T06:57:52;3.90;;;3.20;;
305;SDS011;137;48.578;9.180;2022-11-15T07:00:20;4.60;;;3.87;;
305;SDS011;137;48.578;9.180;2022-11-15T07:02:48;3.57;;;3.13;;
305;SDS011;137;48.578;9.180;2022-11-15T07:05:15;3.90;;;3.43;;
305;SDS011;137;48.578;9.180;2022-11-15T07:07:42;3.40;;;3.10;;
305;SDS011;137;48.578;9.180;2022-11-15T07:10:11;5.00;;;4.57;;
305;SDS011;137;48.578;9.180;2022-11-15T07:12:37;5.50;;;4.10;;
305;SDS011;137;48.578;9.180;2022-11-15T07:15:05;8.87;;;4.70;;
305;SDS011;137;48.578;9.180;2022-11-15T07:17:33;5.50;;;4.67;;
305;SDS011;137;48.578;9.180;2022-11-15T07:19:59;5.63;;;3.97;;
305;SDS011;137;48.578;9.180;2022-11-15T07:22:26;5.80;;;3.90;;
305;SDS011;137;48.578;9.180;2022-11-15T07:24:53;5.38;;;4.30;;
305;SDS011;137;48.578;9.180;2022-11-15T07:27:24;4.73;;;2.77;;
305;SDS011;137;48.578;9.180;2022-11-15T07:29:51;4.07;;;3.67;;
305;SDS011;137;48.578;9.180;2022-11-15T07:32:17;3.37;;;2.50;;
305;SDS011;137;48.578;9.180;2022-11-15T07:34:44;4.97;;;3.27;;
305;SDS011;137;48.578;9.180;2022-11-15T07:37:11;3.27;;;2.87;;
305;SDS011;137;48.578;9.180;2022-11-15T07:39:38;3.20;;;2.73;;
305;SDS011;137;48.578;9.180;2022-11-15T07:42:05;3.97;;;2.97;;
305;SDS011;137;48.578;9.180;2022-11-15T07:44:52;2.73;;;2.47;;
305;SDS011;137;48.578;9.180;2022-11-15T07:47:19;4.00;;;3.00;;
305;SDS011;137;48.578;9.180;2022-11-15T07:49:46;3.07;;;2.77;;
305;SDS011;137;48.578;9.180;2022-11-15T07:52:13;3.90;;;3.50;;
305;SDS011;137;48.578;9.180;2022-11-15T07:54:39;3.73;;;2.53;;
305;SDS011;137;48.578;9.180;2022-11-15T07:57:06;3.30;;;2.77;;
305;SDS011;137;48.578;9.180;2022-11-15T07:59:34;3.20;;;2.90;;
305;SDS011;137;48.578;9.180;2022-11-15T08:02:02;3.47;;;2.70;;
305;SDS011;137;48.578;9.180;2022-11-15T08:04:29;3.53;;;2.80;;
305;SDS011;137;48.578;9.180;2022-11-15T08:06:56;5.80;;;3.40;;
305;SDS011;137;48.578;9.180;2022-11-15T08:09:22;4.93;;;2.43;;
305;SDS011;137;48.578;9.180;2022-11-15T08:11:49;4.27;;;3.67;;
305;SDS011;137;48.578;9.180;2022-11-15T08:14:16;3.53;;;3.07;;
305;SDS011;137;48.578;9.180;2022-11-15T08:16:43;3.67;;;3.07;;
305;SDS011;137;48.578;9.180;2022-11-15T08:19:11;3.83;;;2.47;;
305;SDS011;137;48.578;9.180;2022-11-15T08:21:38;3.90;;;2.67;;
305;SDS011;137;48.578;9.180;2022-11-15T08:24:05;3.70;;;2.70;;
305;SDS011;137;48.578;9.180;2022-11-15T08:26:32;7.23;;;3.23;;
305;SDS011;137;48.578;9.180;2022-11-15T08:28:59;3.03;;;2.40;;
305;SDS011;137;48.578;9.180;2022-11-15T08:31:25;5.10;;;3.37;;
305;SDS011;137;48.578;9.180;2022-11-15T08:33:52;4.30;;;2.70;;
305;SDS011;137;48.578;9.180;2022-11-15T08:36:20;4.53;;;3.13;;
305;SDS011;137;48.578;9.180;2022-11-15T08:38:47;3.47;;;2.67;;
305;SDS011;137;48.578;9.180;2022-11-15T08:41:16;5.97;;;2.80;;
305;SDS011;137;48.578;9.180;2022-11-15T08:43:49;4.03;;;2.90;;
305;SDS011;137;48.578;9.180;2022-11-15T08:46:16;2.87;;;2.57;;
305;SDS011;137;48.578;9.180;2022-11-15T08:48:43;2.73;;;2.53;;
305;SDS011;137;48.578;9.180;2022-11-15T08:51:10;3.20;;;2.77;;
305;SDS011;137;48.578;9.180;2022-11-15T08:53:38;2.80;;;2.20;;
305;SDS011;137;48.578;9.180;2022-11-15T08:56:06;2.30;;;2.10;;
305;SDS011;137;48.578;9.180;2022-11-15T08:58:34;3.40;;;2.83;;
305;SDS011;137;48.578;9.180;2022-11-15T09:01:01;3.70;;;2.73;;
305;SDS011;137;48.578;9.180;2022-11-15T09:03:28;2.37;;;2.03;;
305;SDS011;137;48.578;9.180;2022-11-15T09:05:55;3.23;;;2.73;;
305;SDS011;137;48.578;9.180;2022-11-15T09:08:22;2.90;;;2.40;;
305;SDS011;137;48.578;9.180;2022-11-15T09:10:51;2.40;;;2.20;;
305;SDS011;137;48.578;9.180;2022-11-15T09:13:17;4.60;;;2.40;;
305;SDS011;137;48.578;9.180;2022-11-15T09:15:44;2.73;;;2.50;;
305;SDS011;137;48.578;9.180;2022-11-15T09:18:11;4.77;;;3.10;;
305;SDS011;137;48.578;9.180;2022-11-15T09:20:38;5.07;;;3.47;;
305;SDS011;137;48.578;9.180;2022-11-15T09:23:05;4.60;;;3.73;;
305;SDS011;137;48.578;9.180;2022-11-15T09:25:32;4.47;;;3.33;;
305;SDS011;137;48.578;9.180;2022-11-15T09:28:00;6.40;;;3.80;;
305;SDS011;137;48.578;9.180;2022-11-15T09:30:31;3.63;;;3.27;;
305;SDS011;137;48.578;9.180;2022-11-15T09:32:58;3.63;;;3.33;;
305;SDS011;137;48.578;9.180;2022-11-15T09:35:24;3.87;;;3.47;;
305;SDS011;137;48.578;9.180;2022-11-15T09:37:51;3.97;;;3.47;;
305;SDS011;137;48.578;9.180;2022-11-15T09:40:18;5.77;;;4.07;;
305;SDS011;137;48.578;9.180;2022-11-15T09:42:51;4.77;;;3.73;;
305;SDS011;137;48.578;9.180;2022-11-15T09:45:31;3.00;;;2.70;;
305;SDS011;137;48.578;9.180;2022-11-15T09:48:08;4.33;;;2.97;;
305;SDS011;137;48.578;9.180;2022-11-15T09:50:50;3.50;;;2.80;;
305;SDS011;137;48.578;9.180;2022-11-15T09:53:22;3.17;;;2.73;;
305;SDS011;137;48.578;9.180;2022-11-15T09:55:55;3.10;;;2.33;;
305;SDS011;137;48.578;9.180;2022-11-15T09:58:28;3.43;;;3.13;;
305;SDS011;137;48.578;9.180;2022-11-15T10:01:04;3.70;;;2.93;;
305;SDS011;137;48.578;9.180;2022-11-15T10:03:34;3.93;;;3.33;;
305;SDS011;137;48.578;9.180;2022-11-15T10:06:08;4.50;;;3.77;;
305;SDS011;137;48.578;9.180;2022-11-15T10:08:46;3.60;;;3.30;;
305;SDS011;137;48.578;9.180;2022-11-15T10:11:19;3.93;;;3.33;;
305;SDS011;137;48.578;9.180;2022-11-15T10:13:49;6.43;;;3.40;;
305;SDS011;137;48.578;9.180;2022-11-15T10:16:32;4.00;;;3.23;;
305;SDS011;137;48.578;9.180;2022-11-15T10:19:30;3.30;;;3.00;;
305;SDS011;137;48.578;9.180;2022-11-15T10:22:05;4.60;;;3.73;;
305;SDS011;137;48.578;9.180;2022-11-15T10:24:43;4.30;;;3.40;;
305;SDS011;137;48.578;9.180;2022-11-15T10:27:12;3.80;;;3.50;;
305;SDS011;137;48.578;9.180;2022-11-15T10:29:43;6.53;;;3.50;;
305;SDS011;137;48.578;9.180;2022-11-15T10:32:16;6.90;;;3.50;;
305;SDS011;137;48.578;9.180;2022-11-15T10:34:45;3.67;;;3.30;;
305;SDS011;137;48.578;9.180;2022-11-15T10:37:12;3.37;;;3.07;;
305;SDS011;137;48.578;9.180;2022-11-15T10:39:39;3.70;;;3.07;;
305;SDS011;137;48.578;9.180;2022-11-15T10:42:16;3.93;;;3.47;;
305;SDS011;137;48.578;9.180;2022-11-15T10:44:44;5.43;;;2.80;;
305;SDS011;137;48.578;9.180;2022-11-15T10:47:26;3.80;;;2.77;;
305;SDS011;137;48.578;9.180;2022-11-15T10:49:57;3.47;;;3.17;;
305;SDS011;137;48.578;9.180;2022-11-15T10:52:25;5.53;;;2.90;;
305;SDS011;137;48.578;9.180;2022-11-15T10:54:55;6.30;;;2.40;;
305;SDS011;137;48.578;9.180;2022-11-15T10:57:26;3.60;;;2.60;;
305;SDS011;137;48.578;9.180;2022-11-15T10:59:58;4.83;;;2.47;;
305;SDS011;137;48.578;9.180;2022-11-15T11:02:29;4.00;;;2.80;;
305;SDS011;137;48.578;9.180;2022-11-15T11:04:58;4.03;;;2.70;;
305;SDS011;137;48.578;9.180;2022-11-15T11:07:26;4.10;;;3.20;;
305;SDS011;137;48.578;9.180;2022-11-15T11:09:58;3.07;;;2.77;;
305;SDS011;137;48.578;9.180;2022-11-15T11:12:27;5.60;;;3.87;;
305;SDS011;137;48.578;9.180;2022-11-15T11:14:57;4.67;;;3.60;;
305;SDS011;137;48.578;9.180;2022-11-15T11:17:29;4.77;;;3.63;;
305;SDS011;137;48.578;9.180;2022-11-15T11:20:05;3.57;;;3.27;;
305;SDS011;137;48.578;9.180;2022-11-15T11:22:39;4.40;;;3.87;;
305;SDS011;137;48.578;9.180;2022-11-15T11:25:19;7.57;;;3.60;;
305;SDS011;137;48.578;9.180;2022-11-15T11:27:57;9.37;;;6.10;;
305;SDS011;137;48.578;9.180;2022-11-15T11:30:34;6.50;;;5.83;;
305;SDS011;137;48.578;9.180;2022-11-15T11:33:16;7.37;;;6.67;;
305;SDS011;137;48.578;9.180;2022-11-15T11:35:47;8.57;;;6.60;;
305;SDS011;137;48.578;9.180;2022-11-15T11:38:24;8.23;;;5.20;;
305;SDS011;137;48.578;9.180;2022-11-15T11:41:15;5.50;;;4.00;;
305;SDS011;137;48.578;9.180;2022-11-15T11:44:00;9.17;;;4.70;;
305;SDS011;137;48.578;9.180;2022-11-15T11:46:47;6.17;;;4.83;;
305;SDS011;137;48.578;9.180;2022-11-15T11:49:20;7.43;;;4.93;;
305;SDS011;137;48.578;9.180;2022-11-15T11:51:54;4.40;;;3.97;;
305;SDS011;137;48.578;9.180;2022-11-15T11:54:29;5.83;;;4.50;;
305;SDS011;137;48.578;9.180;2022-11-15T11:57:05;4.23;;;3.80;;
305;SDS011;137;48.578;9.180;2022-11-15T11:59:39;4.77;;;4.37;;
305;SDS011;137;48.578;9.180;2022-11-15T12:02:12;7.10;;;4.97;;
305;SDS011;137;48.578;9.180;2022-11-15T12:04:47;6.40;;;4.10;;
305;SDS011;137;48.578;9.180;2022-11-15T12:07:19;6.40;;;5.37;;
305;SDS011;137;48.578;9.180;2022-11-15T12:09:51;5.70;;;4.40;;
305;SDS011;137;48.578;9.180;2022-11-15T12:12:27;6.43;;;4.20;;
305;SDS011;137;48.578;9.180;2022-11-15T12:15:02;5.23;;;3.63;;
305;SDS011;137;48.578;9.180;2022-11-15T12:17:36;5.60;;;3.50;;
305;SDS011;137;48.578;9.180;2022-11-15T12:20:14;6.13;;;3.70;;
305;SDS011;137;48.578;9.180;2022-11-15T12:22:44;4.57;;;3.30;;
305;SDS011;137;48.578;9.180;2022-11-15T12:25:16;8.00;;;4.13;;
305;SDS011;137;48.578;9.180;2022-11-15T12:27:46;2.70;;;2.50;;
305;SDS011;137;48.578;9.180;2022-11-15T12:30:21;3.00;;;2.67;;
305;SDS011;137;48.578;9.180;2022-11-15T12:32:50;3.50;;;3.20;;
305;SDS011;137;48.578;9.180;2022-11-15T12:35:33;3.70;;;3.17;;
305;SDS011;137;48.578;9.180;2022-11-15T12:38:02;4.30;;;3.90;;
305;SDS011;137;48.578;9.180;2022-11-15T12:40:33;4.37;;;3.50;;
305;SDS011;137;48.578;9.180;2022-11-15T12:46:01;6.13;;;3.10;;
305;SDS011;137;48.578;9.180;2022-11-15T12:48:45;3.33;;;2.90;;
305;SDS011;137;48.578;9.180;2022-11-15T12:51:15;4.03;;;2.90;;
305;SDS011;137;48.578;9.180;2022-11-15T12:53:43;3.50;;;3.20;;
305;SDS011;137;48.578;9.180;2022-11-15T12:56:20;3.10;;;2.80;;
305;SDS011;137;48.578;9.180;2022-11-15T12:58:49;3.53;;;2.60;;
305;SDS011;137;48.578;9.180;2022-11-15T13:01:52;4.07;;;3.13;;
305;SDS011;137;48.578;9.180;2022-11-15T13:04:24;4.43;;;1.97;;
305;SDS011;137;48.578;9.180;2022-11-15T13:06:54;3.13;;;2.50;;
305;SDS011;137;48.578;9.180;2022-11-15T13:15:35;4.70;;;3.33;;
305;SDS011;137;48.578;9.180;2022-11-15T13:18:25;4.43;;;3.27;;
305;SDS011;137;48.578;9.180;2022-11-15T13:21:00;3.10;;;2.80;;
305;SDS011;137;48.578;9.180;2022-11-15T13:23:53;3.80;;;2.67;;
305;SDS011;137;48.578;9.180;2022-11-15T13:26:20;3.17;;;2.87;;
305;SDS011;137;48.578;9.180;2022-11-15T13:28:48;2.97;;;2.70;;
305;SDS011;137;48.578;9.180;2022-11-15T13:31:22;4.83;;;3.10;;
305;SDS011;137;48.578;9.180;2022-11-15T13:33:51;8.93;;;3.17;;
305;SDS011;137;48.578;9.180;2022-11-15T13:36:19;3.70;;;3.30;;
305;SDS011;137;48.578;9.180;2022-11-15T13:38:56;6.87;;;3.90;;
305;SDS011;137;48.578;9.180;2022-11-15T13:41:26;4.50;;;2.97;;
305;SDS011;137;48.578;9.180;2022-11-15T13:43:54;3.17;;;2.90;;
305;SDS011;137;48.578;9.180;2022-11-15T13:46:22;3.50;;;2.80;;
305;SDS011;137;48.578;9.180;2022-11-15T13:48:51;3.23;;;2.60;;
305;SDS011;137;48.578;9.180;2022-11-15T13:51:21;4.00;;;3.17;;
305;SDS011;137;48.578;9.180;2022-11-15T13:53:57;3.30;;;2.93;;
305;SDS011;137;48.578;9.180;2022-11-15T13:56:27;4.23;;;3.50;;
305;SDS011;137;48.578;9.180;2022-11-15T13:58:55;4.03;;;3.10;;
305;SDS011;137;48.578;9.180;2022-11-15T14:01:22;4.17;;;3.77;;
305;SDS011;137;48.578;9.180;2022-11-15T14:03:53;5.60;;;4.13;;
305;SDS011;137;48.578;9.180;2022-11-15T14:06:23;5.90;;;3.33;;
305;SDS011;137;48.578;9.180;2022-11-15T14:09:01;9.27;;;3.63;;
305;SDS011;137;48.578;9.180;2022-11-15T14:11:52;3.93;;;2.57;;
305;SDS011;137;48.578;9.180;2022-11-15T14:14:21;4.70;;;3.23;;
305;SDS011;137;48.578;9.180;2022-11-15T14:16:50;4.90;;;4.20;;
305;SDS011;137;48.578;9.180;2022-11-15T14:19:37;5.30;;;4.50;;
305;SDS011;137;48.578;9.180;2022-11-15T14:25:06;5.90;;;3.80;;
305;SDS011;137;48.578;9.180;2022-11-15T14:27:40;5.13;;;3.90;;
305;SDS011;137;48.578;9.180;2022-11-15T14:30:12;6.90;;;3.60;;
305;SDS011;137;48.578;9.180;2022-11-15T14:32:42;4.60;;;4.17;;
305;SDS011;137;48.578;9.180;2022-11-15T14:35:12;5.30;;;4.23;;
305;SDS011;137;48.578;9.180;2022-11-15T14:37:42;5.53;;;4.30;;
305;SDS011;137;48.578;9.180;2022-11-15T14:40:13;6.03;;;3.77;;
305;SDS011;137;48.578;9.180;2022-11-15T14:42:42;5.87;;;3.70;;
305;SDS011;137;48.578;9.180;2022-11-15T14:45:11;4.93;;;3.73;;
305;SDS011;137;48.578;9.180;2022-11-15T14:47:40;6.07;;;3.43;;
305;SDS011;137;48.578;9.180;2022-11-15T14:50:10;5.10;;;4.57;;
305;SDS011;137;48.578;9.180;2022-11-15T14:52:38;5.10;;;3.80;;
305;SDS011;137;48.578;9.180;2022-11-15T14:55:10;4.10;;;3.70;;
305;SDS011;137;48.578;9.180;2022-11-15T14:57:42;6.07;;;4.30;;
305;SDS011;137;48.578;9.180;2022-11-15T15:00:10;5.10;;;4.33;;
305;SDS011;137;48.578;9.180;2022-11-15T15:02:38;6.40;;;5.80;;
305;SDS011;137;48.578;9.180;2022-11-15T15:05:11;4.57;;;4.17;;
305;SDS011;137;48.578;9.180;2022-11-15T15:07:40;11.13;;;5.80;;
305;SDS011;137;48.578;9.180;2022-11-15T15:10:07;9.77;;;6.43;;
305;SDS011;137;48.578;9.180;2022-11-15T15:12:36;7.50;;;6.00;;
305;SDS011;137;48.578;9.180;2022-11-15T15:15:04;5.50;;;4.83;;
305;SDS011;137;48.578;9.180;2022-11-15T15:17:31;4.90;;;4.50;;
305;SDS011;137;48.578;9.180;2022-11-15T15:19:58;5.40;;;4.60;;
305;SDS011;137;48.578;9.180;2022-11-15T15:22:25;6.67;;;5.07;;
305;SDS011;137;48.578;9.180;2022-11-15T15:24:54;5.20;;;4.70;;
305;SDS011;137;48.578;9.180;2022-11-15T15:27:21;5.77;;;4.50;;
305;SDS011;137;48.578;9.180;2022-11-15T15:29:49;5.50;;;5.00;;
305;SDS011;137;48.578;9.180;2022-11-15T15:32:16;6.30;;;4.33;;
305;SDS011;137;48.578;9.180;2022-11-15T15:34:42;9.87;;;5.30;;
305;SDS011;137;48.578;9.180;2022-11-15T15:37:18;6.97;;;6.37;;
305;SDS011;137;48.578;9.180;2022-11-15T15:39:48;7.80;;;7.00;;
305;SDS011;137;48.578;9.180;2022-11-15T15:42:15;9.03;;;8.10;;
305;SDS011;137;48.578;9.180;2022-11-15T15:44:42;9.70;;;8.70;;
305;SDS011;137;48.578;9.180;2022-11-15T15:47:11;10.03;;;9.03;;
305;SDS011;137;48.578;9.180;2022-11-15T15:49:38;11.60;;;10.50;;
305;SDS011;137;48.578;9.180;2022-11-15T15:52:05;20.93;;;11.33;;
305;SDS011;137;48.578;9.180;2022-11-15T15:54:31;13.60;;;12.20;;
305;SDS011;137;48.578;9.180;2022-11-15T15:56:58;18.90;;;11.80;;
305;SDS011;137;48.578;9.180;2022-11-15T15:59:25;12.77;;;9.57;;
305;SDS011;137;48.578;9.180;2022-11-15T16:01:52;11.00;;;10.00;;
305;SDS011;137;48.578;9.180;2022-11-15T16:04:20;10.43;;;8.43;;
305;SDS011;137;48.578;9.180;2022-11-15T16:06:47;9.27;;;7.87;;
305;SDS011;137;48.578;9.180;2022-11-15T16:09:16;11.73;;;6.90;;
305;SDS011;137;48.578;9.180;2022-11-15T16:11:44;7.23;;;6.53;;
305;SDS011;137;48.578;9.180;2022-11-15T16:14:12;11.93;;;7.10;;
305;SDS011;137;48.578;9.180;2022-11-15T16:16:39;9.60;;;7.73;;